createdAt,value
2018-08-22T00:00:00.100Z,0.00
2018-08-22T00:01:00.334Z,0.00
2018-08-22T00:02:00.141Z,0.00
2018-08-22T00:03:00.244Z,0.00
2018-08-22T00:04:00.177Z,0.00
2018-08-22T00:05:00.271Z,0.00
2018-08-22T00:06:00.166Z,0.00
2018-08-22T00:07:00.141Z,0.00
2018-08-22T00:08:00.110Z,0.00
2018-08-22T00:09:00.217Z,0.00
2018-08-22T00:10:01.041Z,0.00
2018-08-22T00:11:01.033Z,0.00
2018-08-22T00:12:00.121Z,0.00
2018-08-22T00:13:00.210Z,0.00
2018-08-22T00:14:00.184Z,0.00
2018-08-22T00:15:00.258Z,0.00
2018-08-22T00:16:00.188Z,0.00
2018-08-22T00:17:00.219Z,0.00
2018-08-22T00:18:00.304Z,0.00
2018-08-22T00:19:00.240Z,0.00
2018-08-22T00:20:00.241Z,0.00
2018-08-22T00:21:00.223Z,0.00
2018-08-22T00:22:00.231Z,0.00
2018-08-22T00:23:00.160Z,0.00
2018-08-22T00:24:00.231Z,0.00
2018-08-22T00:25:00.158Z,0.00
2018-08-22T00:26:00.251Z,0.00
2018-08-22T00:27:00.193Z,0.00
2018-08-22T00:28:00.188Z,0.00
2018-08-22T00:29:00.220Z,0.00
2018-08-22T00:30:00.193Z,0.00
2018-08-22T00:31:00.241Z,0.00
2018-08-22T00:32:00.214Z,0.00
2018-08-22T00:33:00.182Z,0.00
2018-08-22T00:34:00.187Z,0.00
2018-08-22T00:35:00.279Z,0.00
2018-08-22T00:36:00.184Z,0.00
2018-08-22T00:37:00.250Z,0.00
2018-08-22T00:38:00.236Z,0.00
2018-08-22T00:39:00.264Z,0.00
2018-08-22T00:40:00.198Z,0.00
2018-08-22T00:41:00.373Z,0.00
2018-08-22T00:42:00.208Z,0.00
2018-08-22T00:43:00.367Z,0.00
2018-08-22T00:44:00.272Z,0.00
2018-08-22T00:45:00.248Z,0.00
2018-08-22T00:46:00.223Z,0.00
2018-08-22T00:47:00.238Z,0.00
2018-08-22T00:48:01.051Z,0.00
2018-08-22T00:49:00.226Z,0.00
2018-08-22T00:50:00.281Z,0.00
2018-08-22T00:51:00.300Z,0.00
2018-08-22T00:52:00.379Z,0.00
2018-08-22T00:53:00.254Z,0.00
2018-08-22T00:54:00.562Z,0.00
2018-08-22T00:55:00.291Z,0.00
2018-08-22T00:56:00.390Z,0.00
2018-08-22T00:57:00.329Z,0.00
2018-08-22T00:58:00.281Z,0.00
2018-08-22T00:59:00.263Z,0.00
2018-08-22T01:00:00.263Z,0.00
2018-08-22T01:01:00.471Z,0.00
2018-08-22T01:02:00.455Z,0.00
2018-08-22T01:03:00.266Z,0.00
2018-08-22T01:04:00.255Z,0.00
2018-08-22T01:05:00.281Z,0.00
2018-08-22T01:06:00.280Z,0.00
2018-08-22T01:07:00.290Z,0.00
2018-08-22T01:08:00.294Z,0.00
2018-08-22T01:09:00.287Z,0.00
2018-08-22T01:10:00.289Z,0.00
2018-08-22T01:11:00.319Z,0.00
2018-08-22T01:12:00.284Z,0.00
2018-08-22T01:13:00.293Z,0.00
2018-08-22T01:14:01.061Z,0.00
2018-08-22T01:15:00.297Z,0.00
2018-08-22T01:16:00.316Z,0.00
2018-08-22T01:17:00.300Z,0.00
2018-08-22T01:18:00.315Z,0.00
2018-08-22T01:19:00.337Z,0.00
2018-08-22T01:20:00.334Z,0.00
2018-08-22T01:21:00.319Z,0.00
2018-08-22T01:22:00.301Z,0.00
2018-08-22T01:23:00.380Z,0.00
2018-08-22T01:24:00.335Z,0.00
2018-08-22T01:25:00.334Z,0.00
2018-08-22T01:26:00.323Z,0.00
2018-08-22T01:27:00.380Z,0.00
2018-08-22T01:28:00.314Z,0.00
2018-08-22T01:29:00.343Z,0.00
2018-08-22T01:30:00.340Z,0.00
2018-08-22T01:31:00.345Z,0.00
2018-08-22T01:32:00.390Z,0.00
2018-08-22T01:33:00.358Z,0.00
2018-08-22T01:34:00.393Z,0.00
2018-08-22T01:35:00.407Z,0.00
2018-08-22T01:36:00.345Z,0.00
2018-08-22T01:37:00.356Z,0.00
2018-08-22T01:38:00.351Z,0.00
2018-08-22T01:39:00.427Z,0.00
2018-08-22T01:40:00.384Z,0.00
2018-08-22T01:41:00.373Z,0.00
2018-08-22T01:42:01.075Z,0.00
2018-08-22T01:43:00.362Z,0.00
2018-08-22T01:44:00.374Z,0.00
2018-08-22T01:45:00.384Z,0.00
2018-08-22T01:46:00.373Z,0.00
2018-08-22T01:47:00.365Z,0.00
2018-08-22T01:48:00.404Z,0.00
2018-08-22T01:49:00.407Z,0.00
2018-08-22T01:50:00.377Z,0.00
2018-08-22T01:51:00.410Z,0.00
2018-08-22T01:52:00.390Z,0.00
2018-08-22T01:53:00.395Z,0.00
2018-08-22T01:54:00.384Z,0.00
2018-08-22T01:55:00.403Z,0.00
2018-08-22T01:56:00.399Z,0.00
2018-08-22T01:57:00.462Z,0.00
2018-08-22T01:58:00.413Z,0.00
2018-08-22T01:59:00.413Z,0.00
2018-08-22T02:00:00.414Z,0.00
2018-08-22T02:01:00.409Z,0.00
2018-08-22T02:02:00.427Z,0.00
2018-08-22T02:03:00.465Z,0.00
2018-08-22T02:04:00.436Z,0.00
2018-08-22T02:05:00.430Z,0.00
2018-08-22T02:06:00.435Z,0.00
2018-08-22T02:07:00.440Z,0.00
2018-08-22T02:08:00.541Z,0.00
2018-08-22T02:09:00.429Z,0.00
2018-08-22T02:10:00.484Z,0.00
2018-08-22T02:11:00.470Z,0.00
2018-08-22T02:12:00.465Z,0.00
2018-08-22T02:13:00.531Z,0.00
2018-08-22T02:14:00.445Z,0.00
2018-08-22T02:15:00.451Z,0.00
2018-08-22T02:16:00.444Z,0.00
2018-08-22T02:17:00.457Z,0.00
2018-08-22T02:18:00.462Z,0.00
2018-08-22T02:19:00.477Z,0.00
2018-08-22T02:20:00.462Z,0.00
2018-08-22T02:21:00.493Z,0.00
2018-08-22T02:22:00.470Z,0.00
2018-08-22T02:23:00.481Z,0.00
2018-08-22T02:24:00.484Z,0.00
2018-08-22T02:25:00.556Z,0.00
2018-08-22T02:26:01.090Z,0.00
2018-08-22T02:27:00.495Z,0.00
2018-08-22T02:28:00.503Z,0.00
2018-08-22T02:29:00.494Z,0.00
2018-08-22T02:30:00.517Z,0.00
2018-08-22T02:31:00.516Z,0.00
2018-08-22T02:32:00.512Z,0.00
2018-08-22T02:33:00.541Z,0.00
2018-08-22T02:34:00.513Z,0.00
2018-08-22T02:35:00.527Z,0.00
2018-08-22T02:36:00.510Z,0.00
2018-08-22T02:37:00.542Z,0.00
2018-08-22T02:38:00.496Z,0.00
2018-08-22T02:39:00.512Z,0.00
2018-08-22T02:40:00.525Z,0.00
2018-08-22T02:41:00.518Z,0.00
2018-08-22T02:42:00.548Z,0.00
2018-08-22T02:43:00.538Z,0.00
2018-08-22T02:44:00.508Z,0.00
2018-08-22T02:45:00.551Z,0.00
2018-08-22T02:46:00.528Z,0.00
2018-08-22T02:47:00.577Z,0.00
2018-08-22T02:48:00.537Z,0.00
2018-08-22T02:49:01.101Z,0.00
2018-08-22T02:50:00.535Z,0.00
2018-08-22T02:51:00.608Z,0.00
2018-08-22T02:52:00.559Z,0.00
2018-08-22T02:53:00.541Z,0.00
2018-08-22T02:54:00.581Z,0.00
2018-08-22T02:55:00.551Z,0.00
2018-08-22T02:56:00.563Z,0.00
2018-08-22T02:57:00.618Z,0.00
2018-08-22T02:58:00.548Z,0.00
2018-08-22T02:59:00.574Z,0.00
2018-08-22T03:00:00.580Z,0.00
2018-08-22T03:01:00.580Z,0.00
2018-08-22T03:02:00.567Z,0.00
2018-08-22T03:03:00.573Z,0.00
2018-08-22T03:04:00.569Z,0.00
2018-08-22T03:05:00.567Z,0.00
2018-08-22T03:06:00.601Z,0.00
2018-08-22T03:07:00.590Z,0.00
2018-08-22T03:08:00.577Z,0.00
2018-08-22T03:09:00.604Z,0.00
2018-08-22T03:10:00.635Z,0.00
2018-08-22T03:11:00.595Z,0.00
2018-08-22T03:12:00.653Z,0.00
2018-08-22T03:13:00.636Z,0.00
2018-08-22T03:14:00.667Z,0.00
2018-08-22T03:15:00.617Z,0.00
2018-08-22T03:16:00.613Z,0.00
2018-08-22T03:17:00.599Z,0.00
2018-08-22T03:18:00.620Z,0.00
2018-08-22T03:19:00.599Z,0.00
2018-08-22T03:20:01.115Z,0.00
2018-08-22T03:21:00.656Z,0.00
2018-08-22T03:22:00.652Z,0.00
2018-08-22T03:23:00.624Z,0.00
2018-08-22T03:24:00.624Z,0.00
2018-08-22T03:25:00.641Z,0.00
2018-08-22T03:26:00.710Z,0.00
2018-08-22T03:27:00.631Z,0.00
2018-08-22T03:28:00.669Z,0.00
2018-08-22T03:29:00.667Z,0.00
2018-08-22T03:30:01.119Z,0.00
2018-08-22T03:31:00.679Z,0.00
2018-08-22T03:32:00.654Z,0.00
2018-08-22T03:33:00.657Z,0.00
2018-08-22T03:34:00.696Z,0.00
2018-08-22T03:35:00.676Z,0.00
2018-08-22T03:36:00.679Z,0.00
2018-08-22T03:37:00.667Z,0.00
2018-08-22T03:38:00.695Z,0.00
2018-08-22T03:39:00.686Z,0.00
2018-08-22T03:40:00.661Z,0.00
2018-08-22T03:41:00.653Z,0.00
2018-08-22T03:42:00.744Z,0.00
2018-08-22T03:43:00.675Z,0.00
2018-08-22T03:44:00.663Z,0.00
2018-08-22T03:45:00.669Z,0.00
2018-08-22T03:46:01.623Z,0.00
2018-08-22T03:47:00.709Z,0.00
2018-08-22T03:48:00.696Z,0.00
2018-08-22T03:49:00.704Z,0.00
2018-08-22T03:50:00.683Z,0.00
2018-08-22T03:51:00.746Z,0.00
2018-08-22T03:52:00.723Z,0.00
2018-08-22T03:53:00.708Z,0.00
2018-08-22T03:54:00.715Z,0.00
2018-08-22T03:55:00.703Z,0.00
2018-08-22T03:56:00.718Z,0.00
2018-08-22T03:57:00.718Z,0.00
2018-08-22T03:58:00.728Z,0.00
2018-08-22T03:59:00.727Z,0.00
2018-08-22T04:00:00.736Z,0.00
2018-08-22T04:01:01.649Z,0.00
2018-08-22T04:02:00.747Z,0.00
2018-08-22T04:03:00.725Z,0.00
2018-08-22T04:04:00.717Z,0.00
2018-08-22T04:05:00.717Z,0.00
2018-08-22T04:06:00.770Z,0.00
2018-08-22T04:07:00.718Z,0.00
2018-08-22T04:08:00.740Z,0.00
2018-08-22T04:09:00.768Z,0.00
2018-08-22T04:10:00.771Z,0.00
2018-08-22T04:11:00.741Z,0.00
2018-08-22T04:12:00.747Z,0.00
2018-08-22T04:13:00.735Z,0.00
2018-08-22T04:14:00.829Z,0.00
2018-08-22T04:15:00.775Z,0.00
2018-08-22T04:16:00.768Z,0.00
2018-08-22T04:17:00.766Z,0.00
2018-08-22T04:18:00.796Z,0.00
2018-08-22T04:19:00.806Z,0.00
2018-08-22T04:20:00.747Z,0.00
2018-08-22T04:21:00.794Z,0.00
2018-08-22T04:22:00.795Z,0.00
2018-08-22T04:23:00.781Z,0.00
2018-08-22T04:24:00.794Z,0.00
2018-08-22T04:25:00.810Z,0.00
2018-08-22T04:26:00.782Z,0.00
2018-08-22T04:27:00.821Z,5.63
2018-08-22T04:28:00.795Z,5.63
2018-08-22T04:29:01.643Z,5.63
2018-08-22T04:30:00.824Z,5.63
2018-08-22T04:31:00.844Z,5.63
2018-08-22T04:32:00.808Z,5.63
2018-08-22T04:33:00.812Z,5.63
2018-08-22T04:34:00.818Z,5.63
2018-08-22T04:35:00.802Z,5.63
2018-08-22T04:36:00.830Z,5.63
2018-08-22T04:37:01.645Z,11.25
2018-08-22T04:38:00.814Z,11.25
2018-08-22T04:39:00.850Z,11.25
2018-08-22T04:40:00.821Z,11.25
2018-08-22T04:41:00.819Z,11.25
2018-08-22T04:42:00.805Z,11.25
2018-08-22T04:43:00.841Z,11.25
2018-08-22T04:44:00.824Z,11.25
2018-08-22T04:45:00.826Z,16.88
2018-08-22T04:46:00.820Z,16.88
2018-08-22T04:47:00.860Z,16.88
2018-08-22T04:48:00.847Z,16.88
2018-08-22T04:49:00.828Z,16.88
2018-08-22T04:50:00.864Z,16.88
2018-08-22T04:51:00.912Z,16.88
2018-08-22T04:52:01.890Z,22.50
2018-08-22T04:53:01.073Z,22.50
2018-08-22T04:54:00.884Z,22.50
2018-08-22T04:55:01.685Z,22.50
2018-08-22T04:56:01.013Z,22.50
2018-08-22T04:57:00.888Z,22.50
2018-08-22T04:58:01.057Z,22.50
2018-08-22T04:59:01.059Z,28.13
2018-08-22T05:00:01.255Z,28.13
2018-08-22T05:01:01.022Z,28.13
2018-08-22T05:02:00.936Z,28.13
2018-08-22T05:03:00.987Z,28.13
2018-08-22T05:04:00.922Z,28.13
2018-08-22T05:05:01.041Z,33.75
2018-08-22T05:06:00.971Z,33.75
2018-08-22T05:07:01.082Z,33.75
2018-08-22T05:08:01.101Z,39.38
2018-08-22T05:09:01.291Z,39.38
2018-08-22T05:10:01.430Z,39.38
2018-08-22T05:11:01.093Z,39.38
2018-08-22T05:12:01.897Z,39.38
2018-08-22T05:13:01.329Z,39.38
2018-08-22T05:14:01.807Z,39.38
2018-08-22T05:15:01.013Z,45.00
2018-08-22T05:16:00.999Z,45.00
2018-08-22T05:17:01.752Z,50.63
2018-08-22T05:18:00.953Z,50.63
2018-08-22T05:19:01.285Z,50.63
2018-08-22T05:20:01.115Z,56.25
2018-08-22T05:21:01.007Z,61.88
2018-08-22T05:22:01.081Z,61.88
2018-08-22T05:23:03.969Z,61.88
2018-08-22T05:24:01.033Z,67.50
2018-08-22T05:25:01.292Z,67.50
2018-08-22T05:26:01.192Z,67.50
2018-08-22T05:27:01.089Z,67.50
2018-08-22T05:28:01.070Z,73.13
2018-08-22T05:29:01.033Z,78.75
2018-08-22T05:30:02.134Z,84.38
2018-08-22T05:31:01.112Z,95.63
2018-08-22T05:32:01.024Z,95.63
2018-08-22T05:33:01.096Z,106.88
2018-08-22T05:34:01.312Z,106.88
2018-08-22T05:35:01.074Z,112.50
2018-08-22T05:36:01.672Z,112.50
2018-08-22T05:37:01.134Z,112.50
2018-08-22T05:38:01.081Z,106.88
2018-08-22T05:39:01.359Z,106.88
2018-08-22T05:40:01.059Z,106.88
2018-08-22T05:41:01.241Z,106.88
2018-08-22T05:42:01.310Z,106.88
2018-08-22T05:43:01.739Z,106.88
2018-08-22T05:44:01.225Z,106.88
2018-08-22T05:45:01.087Z,146.25
2018-08-22T05:46:01.070Z,146.25
2018-08-22T05:47:01.674Z,129.38
2018-08-22T05:48:01.638Z,123.75
2018-08-22T05:49:01.280Z,123.75
2018-08-22T05:50:01.048Z,129.38
2018-08-22T05:51:01.023Z,129.38
2018-08-22T05:52:01.172Z,135.00
2018-08-22T05:53:01.092Z,140.63
2018-08-22T05:54:01.133Z,146.25
2018-08-22T05:55:01.285Z,151.88
2018-08-22T05:56:01.212Z,151.88
2018-08-22T05:57:01.095Z,157.50
2018-08-22T05:58:01.101Z,157.50
2018-08-22T05:59:01.037Z,185.63
2018-08-22T06:00:01.048Z,168.75
2018-08-22T06:01:01.125Z,168.75
2018-08-22T06:02:01.693Z,180.00
2018-08-22T06:03:01.131Z,174.38
2018-08-22T06:04:01.070Z,168.75
2018-08-22T06:05:01.337Z,174.38
2018-08-22T06:06:01.228Z,174.38
2018-08-22T06:07:01.155Z,180.00
2018-08-22T06:08:01.253Z,191.25
2018-08-22T06:09:01.259Z,191.25
2018-08-22T06:10:04.354Z,281.25
2018-08-22T06:11:01.176Z,286.88
2018-08-22T06:12:01.094Z,281.25
2018-08-22T06:13:01.093Z,281.25
2018-08-22T06:14:01.065Z,281.25
2018-08-22T06:15:01.110Z,275.63
2018-08-22T06:16:01.099Z,247.50
2018-08-22T06:17:01.072Z,241.88
2018-08-22T06:18:01.114Z,264.38
2018-08-22T06:19:01.114Z,286.88
2018-08-22T06:20:01.078Z,292.50
2018-08-22T06:21:01.098Z,309.38
2018-08-22T06:22:01.115Z,315.00
2018-08-22T06:23:01.148Z,315.00
2018-08-22T06:24:01.187Z,320.63
2018-08-22T06:25:01.116Z,337.50
2018-08-22T06:26:01.109Z,303.75
2018-08-22T06:27:01.116Z,348.75
2018-08-22T06:28:01.132Z,331.88
2018-08-22T06:29:01.144Z,331.88
2018-08-22T06:30:01.149Z,348.75
2018-08-22T06:31:01.149Z,365.63
2018-08-22T06:32:01.151Z,365.63
2018-08-22T06:33:01.268Z,376.88
2018-08-22T06:34:01.187Z,382.50
2018-08-22T06:35:01.160Z,376.88
2018-08-22T06:36:01.160Z,393.75
2018-08-22T06:37:01.197Z,399.38
2018-08-22T06:38:01.219Z,388.13
2018-08-22T06:39:01.176Z,399.38
2018-08-22T06:40:01.224Z,416.25
2018-08-22T06:41:01.224Z,421.88
2018-08-22T06:42:01.221Z,444.38
2018-08-22T06:43:01.233Z,461.25
2018-08-22T06:44:02.775Z,466.88
2018-08-22T06:45:01.244Z,393.75
2018-08-22T06:46:01.294Z,444.38
2018-08-22T06:47:01.259Z,421.88
2018-08-22T06:48:01.451Z,500.63
2018-08-22T06:49:01.246Z,472.50
2018-08-22T06:50:01.267Z,500.63
2018-08-22T06:51:01.294Z,511.88
2018-08-22T06:52:01.279Z,545.63
2018-08-22T06:53:01.293Z,545.63
2018-08-22T06:54:01.393Z,450.00
2018-08-22T06:55:01.367Z,399.38
2018-08-22T06:56:01.300Z,393.75
2018-08-22T06:57:01.459Z,371.25
2018-08-22T06:58:01.343Z,360.00
2018-08-22T06:59:01.440Z,410.63
2018-08-22T07:00:01.432Z,348.75
2018-08-22T07:01:01.354Z,320.63
2018-08-22T07:02:01.436Z,309.38
2018-08-22T07:03:01.372Z,292.50
2018-08-22T07:04:01.369Z,275.63
2018-08-22T07:05:01.489Z,247.50
2018-08-22T07:06:01.390Z,230.63
2018-08-22T07:07:02.224Z,225.00
2018-08-22T07:08:01.581Z,219.38
2018-08-22T07:09:01.590Z,219.38
2018-08-22T07:10:01.506Z,225.00
2018-08-22T07:11:02.225Z,213.75
2018-08-22T07:12:01.442Z,202.50
2018-08-22T07:13:01.467Z,241.88
2018-08-22T07:14:01.535Z,191.25
2018-08-22T07:15:01.472Z,180.00
2018-08-22T07:16:01.488Z,180.00
2018-08-22T07:17:01.501Z,185.63
2018-08-22T07:18:01.587Z,191.25
2018-08-22T07:19:01.576Z,202.50
2018-08-22T07:20:01.540Z,213.75
2018-08-22T07:21:01.564Z,230.63
2018-08-22T07:22:01.671Z,241.88
2018-08-22T07:23:01.532Z,253.13
2018-08-22T07:24:01.541Z,264.38
2018-08-22T07:25:01.513Z,281.25
2018-08-22T07:26:01.568Z,545.63
2018-08-22T07:27:01.593Z,579.38
2018-08-22T07:28:02.483Z,483.75
2018-08-22T07:29:01.545Z,601.88
2018-08-22T07:30:01.586Z,618.75
2018-08-22T07:31:01.575Z,624.38
2018-08-22T07:32:01.653Z,630.00
2018-08-22T07:33:01.576Z,641.25
2018-08-22T07:34:01.594Z,646.88
2018-08-22T07:35:03.249Z,646.88
2018-08-22T07:36:01.736Z,652.50
2018-08-22T07:37:04.449Z,652.50
2018-08-22T07:38:04.494Z,652.50
2018-08-22T07:39:03.236Z,658.13
2018-08-22T07:40:01.921Z,658.13
2018-08-22T07:41:04.540Z,652.50
2018-08-22T07:42:08.939Z,658.13
2018-08-22T07:43:07.489Z,663.75
2018-08-22T07:44:03.431Z,669.38
2018-08-22T07:45:01.758Z,680.63
2018-08-22T07:46:03.382Z,680.63
2018-08-22T07:47:01.861Z,686.25
2018-08-22T07:48:01.680Z,697.50
2018-08-22T07:49:04.675Z,697.50
2018-08-22T07:50:01.783Z,697.50
2018-08-22T07:51:01.767Z,697.50
2018-08-22T07:52:01.842Z,680.63
2018-08-22T07:53:01.779Z,680.63
2018-08-22T07:54:01.748Z,675.00
2018-08-22T07:55:02.191Z,691.88
2018-08-22T07:56:01.763Z,686.25
2018-08-22T07:57:01.782Z,725.63
2018-08-22T07:58:01.789Z,731.25
2018-08-22T07:59:01.754Z,742.50
2018-08-22T08:00:01.854Z,675.00
2018-08-22T08:01:01.824Z,720.00
2018-08-22T08:02:01.991Z,703.13
2018-08-22T08:03:01.841Z,765.00
2018-08-22T08:04:01.806Z,776.25
2018-08-22T08:05:01.877Z,776.25
2018-08-22T08:06:01.897Z,776.25
2018-08-22T08:07:02.163Z,781.88
2018-08-22T08:08:01.916Z,613.13
2018-08-22T08:09:01.896Z,793.13
2018-08-22T08:10:01.955Z,798.75
2018-08-22T08:11:01.970Z,804.38
2018-08-22T08:12:03.768Z,810.00
2018-08-22T08:13:01.973Z,815.63
2018-08-22T08:14:01.993Z,815.63
2018-08-22T08:15:02.000Z,781.88
2018-08-22T08:16:01.981Z,731.25
2018-08-22T08:17:02.100Z,736.88
2018-08-22T08:18:02.051Z,770.63
2018-08-22T08:19:02.033Z,793.13
2018-08-22T08:20:02.892Z,815.63
2018-08-22T08:21:02.050Z,838.13
2018-08-22T08:22:02.035Z,866.25
2018-08-22T08:23:02.081Z,866.25
2018-08-22T08:24:02.770Z,860.63
2018-08-22T08:25:02.163Z,866.25
2018-08-22T08:26:02.145Z,843.75
2018-08-22T08:27:02.203Z,871.88
2018-08-22T08:28:02.143Z,855.00
2018-08-22T08:29:02.171Z,877.50
2018-08-22T08:30:02.231Z,905.63
2018-08-22T08:31:02.213Z,916.88
2018-08-22T08:32:02.228Z,922.50
2018-08-22T08:33:02.233Z,933.75
2018-08-22T08:34:02.219Z,939.38
2018-08-22T08:35:02.906Z,950.63
2018-08-22T08:36:02.277Z,945.00
2018-08-22T08:37:02.301Z,967.50
2018-08-22T08:38:02.334Z,984.38
2018-08-22T08:39:02.318Z,978.75
2018-08-22T08:40:02.286Z,1006.88
2018-08-22T08:41:02.349Z,1012.50
2018-08-22T08:42:02.306Z,1023.75
2018-08-22T08:43:02.460Z,1023.75
2018-08-22T08:44:02.395Z,1040.63
2018-08-22T08:45:02.443Z,1046.25
2018-08-22T08:46:02.415Z,1051.88
2018-08-22T08:47:02.419Z,1063.13
2018-08-22T08:48:02.479Z,1068.75
2018-08-22T08:49:02.676Z,1080.00
2018-08-22T08:50:02.564Z,1091.25
2018-08-22T08:51:04.038Z,1091.25
2018-08-22T08:52:02.494Z,1108.13
2018-08-22T08:53:02.597Z,1130.63
2018-08-22T08:54:04.264Z,1130.63
2018-08-22T08:55:02.632Z,1141.88
2018-08-22T08:56:03.419Z,1198.13
2018-08-22T08:59:38.397Z,1316.25
2018-08-22T09:03:04.742Z,1434.38
2018-08-22T09:04:05.197Z,1507.50
2018-08-22T09:06:00.487Z,1726.88
2018-08-22T09:06:58.492Z,1923.75
2018-08-22T09:07:58.134Z,2143.13
2018-08-22T09:08:59.220Z,2435.63
2018-08-22T09:09:59.199Z,2739.38
2018-08-22T09:10:58.371Z,3105.00
2018-08-22T09:11:58.272Z,3555.00
2018-08-22T09:12:58.380Z,3954.38
2018-08-22T09:13:58.332Z,4258.13
2018-08-22T09:14:59.060Z,4522.50
2018-08-22T09:15:59.212Z,4758.75
2018-08-22T09:16:58.343Z,4820.63
2018-08-22T09:17:58.371Z,4466.25
2018-08-22T09:18:58.371Z,3943.13
2018-08-22T09:19:59.314Z,3915.00
2018-08-22T09:22:31.899Z,3414.38
2018-08-22T09:23:30.958Z,3189.38
2018-08-22T09:24:31.444Z,2975.63
2018-08-22T09:25:30.899Z,2823.75
2018-08-22T09:26:31.576Z,2722.50
2018-08-22T09:27:31.117Z,2677.50
2018-08-22T09:28:30.998Z,2700.00
2018-08-22T09:29:31.018Z,2604.38
2018-08-22T09:30:31.000Z,2542.50
2018-08-22T09:31:33.639Z,2593.13
2018-08-22T09:32:31.025Z,2604.38
2018-08-22T09:33:31.058Z,2525.63
2018-08-22T09:34:31.023Z,2458.13
2018-08-22T09:35:31.091Z,2548.13
2018-08-22T09:36:31.062Z,2424.38
2018-08-22T09:37:31.060Z,2323.13
2018-08-22T09:38:31.100Z,2238.75
2018-08-22T09:39:31.264Z,2250.00
2018-08-22T09:40:31.258Z,2238.75
2018-08-22T09:41:31.209Z,2221.88
2018-08-22T09:42:31.179Z,2221.88
2018-08-22T09:43:31.235Z,2221.88
2018-08-22T09:44:31.307Z,2188.13
2018-08-22T09:45:31.419Z,2193.75
2018-08-22T09:46:35.586Z,1935.00
2018-08-22T09:48:31.996Z,1738.13
2018-08-22T09:49:32.906Z,1805.63
2018-08-22T09:50:31.395Z,1828.13
2018-08-22T09:51:31.368Z,1935.00
2018-08-22T09:52:31.402Z,2064.38
2018-08-22T09:53:31.424Z,1912.50
2018-08-22T09:54:31.487Z,1845.00
2018-08-22T09:55:31.459Z,2244.38
2018-08-22T09:56:31.456Z,2278.13
2018-08-22T09:57:31.481Z,2165.63
2018-08-22T09:58:31.740Z,2070.00
2018-08-22T09:59:31.551Z,1878.75
2018-08-22T10:00:31.747Z,1935.00
2018-08-22T10:01:31.537Z,2075.63
2018-08-22T10:02:31.581Z,2115.00
2018-08-22T10:03:31.625Z,2193.75
2018-08-22T10:04:31.595Z,2165.63
2018-08-22T10:05:31.732Z,2373.75
2018-08-22T10:06:31.964Z,2463.75
2018-08-22T10:07:31.792Z,2520.00
2018-08-22T10:08:32.273Z,2559.38
2018-08-22T10:11:05.309Z,2570.63
2018-08-22T10:12:05.129Z,2778.75
2018-08-22T10:13:05.198Z,2778.75
2018-08-22T10:14:07.777Z,3026.25
2018-08-22T10:15:05.055Z,2930.63
2018-08-22T10:16:05.137Z,2795.63
2018-08-22T10:17:05.131Z,2874.38
2018-08-22T10:18:05.207Z,2902.50
2018-08-22T10:19:05.196Z,2941.88
2018-08-22T10:20:05.192Z,2795.63
2018-08-22T10:21:05.176Z,2565.00
2018-08-22T10:22:05.224Z,2840.63
2018-08-22T10:23:05.240Z,2750.63
2018-08-22T10:24:05.240Z,2441.25
2018-08-22T10:25:05.285Z,1946.25
2018-08-22T10:26:05.243Z,1389.38
2018-08-22T10:27:05.334Z,1333.13
2018-08-22T10:28:05.361Z,1569.38
2018-08-22T10:29:05.349Z,1518.75
2018-08-22T10:30:05.349Z,2424.38
2018-08-22T10:31:06.249Z,2632.50
2018-08-22T10:32:05.409Z,2514.38
2018-08-22T10:33:05.489Z,2205.00
2018-08-22T10:34:05.463Z,2328.75
2018-08-22T10:35:05.569Z,2311.88
2018-08-22T10:36:05.480Z,2390.63
2018-08-22T10:37:05.480Z,2311.88
2018-08-22T10:38:05.495Z,1991.25
2018-08-22T10:39:05.527Z,1878.75
2018-08-22T10:40:05.540Z,2193.75
2018-08-22T10:41:05.549Z,2328.75
2018-08-22T10:42:05.592Z,2407.50
2018-08-22T10:43:05.617Z,2053.13
2018-08-22T10:44:05.594Z,1710.00
2018-08-22T10:45:06.559Z,1096.88
2018-08-22T10:46:05.768Z,961.88
2018-08-22T10:47:05.665Z,832.50
2018-08-22T10:48:06.067Z,1642.50
2018-08-22T10:49:06.290Z,1631.25
2018-08-22T10:50:05.788Z,1715.63
2018-08-22T10:51:05.757Z,1693.13
2018-08-22T10:52:05.785Z,1670.63
2018-08-22T10:53:05.825Z,1513.13
2018-08-22T10:54:05.820Z,1130.63
2018-08-22T10:55:05.880Z,1440.00
2018-08-22T10:56:05.873Z,1316.25
2018-08-22T10:57:06.021Z,900.00
2018-08-22T10:58:05.875Z,1012.50
2018-08-22T10:59:06.785Z,1215.00
2018-08-22T11:00:05.965Z,1591.88
2018-08-22T11:01:05.942Z,1575.00
2018-08-22T11:02:07.062Z,1648.13
2018-08-22T11:03:05.968Z,534.38
2018-08-22T11:04:06.004Z,911.25
2018-08-22T11:05:06.021Z,652.50
2018-08-22T11:06:06.066Z,562.50
2018-08-22T11:07:06.044Z,686.25
2018-08-22T11:08:06.091Z,753.75
2018-08-22T11:09:06.130Z,607.50
2018-08-22T11:10:06.271Z,523.13
2018-08-22T11:11:06.076Z,506.25
2018-08-22T11:12:06.089Z,500.63
2018-08-22T11:13:06.121Z,489.38
2018-08-22T11:14:06.229Z,495.00
2018-08-22T11:15:06.136Z,500.63
2018-08-22T11:16:06.235Z,489.38
2018-08-22T11:17:06.250Z,478.13
2018-08-22T11:18:06.221Z,455.63
2018-08-22T11:19:06.204Z,427.50
2018-08-22T11:20:06.279Z,410.63
2018-08-22T11:21:07.917Z,388.13
2018-08-22T11:22:06.263Z,388.13
2018-08-22T11:23:06.286Z,388.13
2018-08-22T11:24:06.317Z,433.13
2018-08-22T11:25:09.957Z,461.25
2018-08-22T11:26:06.434Z,472.50
2018-08-22T11:27:06.352Z,478.13
2018-08-22T11:28:06.399Z,483.75
2018-08-22T11:29:06.394Z,489.38
2018-08-22T11:30:07.022Z,495.00
2018-08-22T11:31:06.398Z,517.50
2018-08-22T11:32:06.425Z,517.50
2018-08-22T11:33:06.452Z,511.88
2018-08-22T11:34:06.583Z,495.00
2018-08-22T11:35:06.452Z,472.50
2018-08-22T11:36:06.500Z,455.63
2018-08-22T11:37:06.501Z,444.38
2018-08-22T11:38:06.524Z,427.50
2018-08-22T11:39:06.513Z,405.00
2018-08-22T11:40:06.490Z,382.50
2018-08-22T11:41:06.493Z,371.25
2018-08-22T11:42:06.944Z,360.00
2018-08-22T11:43:06.543Z,354.38
2018-08-22T11:44:06.678Z,360.00
2018-08-22T11:45:06.632Z,371.25
2018-08-22T11:46:07.547Z,376.88
2018-08-22T11:47:06.660Z,371.25
2018-08-22T11:48:06.615Z,354.38
2018-08-22T11:49:06.594Z,365.63
2018-08-22T11:50:06.759Z,365.63
2018-08-22T11:51:06.745Z,382.50
2018-08-22T11:52:06.671Z,376.88
2018-08-22T11:53:06.677Z,382.50
2018-08-22T11:54:06.866Z,399.38
2018-08-22T11:55:06.767Z,399.38
2018-08-22T11:56:06.832Z,399.38
2018-08-22T11:57:06.716Z,382.50
2018-08-22T11:58:06.756Z,382.50
2018-08-22T11:59:08.959Z,376.88
2018-08-22T12:00:06.790Z,348.75
2018-08-22T12:01:06.730Z,343.13
2018-08-22T12:02:06.836Z,337.50
2018-08-22T12:03:06.748Z,343.13
2018-08-22T12:04:06.821Z,320.63
2018-08-22T12:05:06.793Z,315.00
2018-08-22T12:06:06.819Z,292.50
2018-08-22T12:07:06.800Z,281.25
2018-08-22T12:08:06.889Z,253.13
2018-08-22T12:09:06.847Z,236.25
2018-08-22T12:10:06.890Z,213.75
2018-08-22T12:11:06.941Z,202.50
2018-08-22T12:12:07.507Z,202.50
2018-08-22T12:13:06.958Z,225.00
2018-08-22T12:14:06.923Z,230.63
2018-08-22T12:15:06.897Z,230.63
2018-08-22T12:16:06.915Z,241.88
2018-08-22T12:17:06.910Z,247.50
2018-08-22T12:18:06.899Z,264.38
2018-08-22T12:19:07.099Z,264.38
2018-08-22T12:20:07.001Z,241.88
2018-08-22T12:21:06.966Z,230.63
2018-08-22T12:22:06.972Z,225.00
2018-08-22T12:23:07.080Z,241.88
2018-08-22T12:24:06.932Z,241.88
2018-08-22T12:25:07.188Z,236.25
2018-08-22T12:26:06.998Z,230.63
2018-08-22T12:27:07.054Z,219.38
2018-08-22T12:28:07.045Z,202.50
2018-08-22T12:29:07.023Z,202.50
2018-08-22T12:30:07.110Z,196.88
2018-08-22T12:31:07.059Z,202.50
2018-08-22T12:32:07.858Z,191.25
2018-08-22T12:33:07.123Z,185.63
2018-08-22T12:34:07.096Z,180.00
2018-08-22T12:35:07.126Z,180.00
2018-08-22T12:36:07.091Z,185.63
2018-08-22T12:37:07.105Z,180.00
2018-08-22T12:38:07.117Z,174.38
2018-08-22T12:39:07.126Z,168.75
2018-08-22T12:40:07.910Z,163.13
2018-08-22T12:41:07.118Z,157.50
2018-08-22T12:42:10.007Z,163.13
2018-08-22T12:43:07.236Z,163.13
2018-08-22T12:44:07.193Z,174.38
2018-08-22T12:45:07.197Z,180.00
2018-08-22T12:46:07.241Z,185.63
2018-08-22T12:47:07.419Z,191.25
2018-08-22T12:48:07.237Z,191.25
2018-08-22T12:49:07.213Z,196.88
2018-08-22T12:50:07.316Z,196.88
2018-08-22T12:51:08.522Z,191.25
2018-08-22T12:52:08.997Z,191.25
2018-08-22T12:53:07.300Z,191.25